createdAt,value
2023-03-04T00:01:17.007Z,95017.28
2023-03-04T00:03:43.798Z,95023.91
2023-03-04T00:06:10.542Z,95019.88
2023-03-04T00:08:38.180Z,95018.41
2023-03-04T00:11:05.132Z,95018.41
2023-03-04T00:13:31.892Z,95026.59
2023-03-04T00:15:58.692Z,95025.66
2023-03-04T00:18:25.439Z,95019.34
2023-03-04T00:20:52.137Z,95018.28
2023-03-04T00:23:19.916Z,95022.75
2023-03-04T00:25:46.658Z,95028.72
2023-03-04T00:28:13.356Z,95032.13
2023-03-04T00:30:40.062Z,95029.53
2023-03-04T00:33:06.753Z,95032.19
2023-03-04T00:35:33.514Z,95032.63
2023-03-04T00:38:00.197Z,95029.72
2023-03-04T00:40:26.944Z,95031.63
2023-03-04T00:42:53.734Z,95035.66
2023-03-04T00:45:20.424Z,95026.16
2023-03-04T00:47:47.057Z,95030.38
2023-03-04T00:50:13.781Z,95032.56
2023-03-04T00:52:40.492Z,95029.25
2023-03-04T00:55:08.453Z,95031.09
2023-03-04T00:57:35.378Z,95022.28
2023-03-04T01:00:02.119Z,95020.84
2023-03-04T01:02:28.811Z,95023.81
2023-03-04T01:04:55.447Z,95016.88
2023-03-04T01:07:22.229Z,95012.91
2023-03-04T01:09:48.922Z,95006.59
2023-03-04T01:12:15.632Z,95005.16
2023-03-04T01:14:42.322Z,95007.75
2023-03-04T01:17:08.985Z,95002.25
2023-03-04T01:19:35.805Z,95007.09
2023-03-04T01:22:02.503Z,95001.59
2023-03-04T01:24:30.145Z,95006.06
2023-03-04T01:26:57.140Z,94996.09
2023-03-04T01:29:23.783Z,95000.56
2023-03-04T01:31:50.417Z,94990.59
2023-03-04T01:34:18.184Z,94994.34
2023-03-04T01:36:44.863Z,94986.56
2023-03-04T01:39:11.642Z,94984.00
2023-03-04T01:41:38.513Z,94985.09
2023-03-04T01:44:06.223Z,94986.25
2023-03-04T01:46:33.152Z,94987.47
2023-03-04T01:49:00.385Z,94986.72
2023-03-04T01:51:27.195Z,94984.97
2023-03-04T01:53:55.059Z,94984.25
2023-03-04T01:56:28.528Z,94982.16
2023-03-04T01:59:12.305Z,94982.88
2023-03-04T02:01:40.246Z,94970.03
2023-03-04T02:04:08.011Z,94964.19
2023-03-04T02:06:37.211Z,94965.25
2023-03-04T02:09:04.227Z,94964.19
2023-03-04T02:11:31.370Z,94964.28
2023-03-04T02:13:59.434Z,94963.16
2023-03-04T02:16:26.508Z,94962.81
2023-03-04T02:18:53.487Z,94958.78
2023-03-04T02:21:32.065Z,94958.47
2023-03-04T02:24:27.220Z,94958.13
2023-03-04T02:26:53.872Z,94960.41
2023-03-04T02:29:20.752Z,94956.38
2023-03-04T02:31:49.924Z,94954.50
2023-03-04T02:34:20.337Z,94957.16
2023-03-04T02:36:48.572Z,94950.88
2023-03-04T02:39:21.181Z,94952.81
2023-03-04T02:41:49.063Z,94948.41
2023-03-04T02:44:18.735Z,94950.69
2023-03-04T02:46:45.821Z,94948.84
2023-03-04T02:49:12.855Z,94955.88
2023-03-04T02:51:39.749Z,94949.31
2023-03-04T02:54:18.212Z,94947.16
2023-03-04T02:56:49.613Z,94959.41
2023-03-04T02:59:16.817Z,94948.03
2023-03-04T03:01:43.546Z,94959.81
2023-03-04T03:04:10.617Z,94952.81
2023-03-04T03:06:37.358Z,94951.34
2023-03-04T03:09:04.154Z,94953.59
2023-03-04T03:11:31.532Z,94948.44
2023-03-04T03:13:58.285Z,94946.25
2023-03-04T03:16:25.037Z,94952.53
2023-03-04T03:18:51.669Z,94945.94
2023-03-04T03:21:18.442Z,94946.66
2023-03-04T03:23:45.306Z,94956.66
2023-03-04T03:26:11.951Z,94948.25
2023-03-04T03:28:38.590Z,94957.84
2023-03-04T03:31:05.424Z,94953.03
2023-03-04T03:33:32.343Z,94953.09
2023-03-04T03:36:00.243Z,94954.22
2023-03-04T03:38:28.321Z,94950.25
2023-03-04T03:40:54.924Z,94957.59
2023-03-04T03:43:21.527Z,94949.13
2023-03-04T03:45:48.152Z,94948.06
2023-03-04T03:48:14.884Z,94951.03
2023-03-04T03:50:41.455Z,94957.34
2023-03-04T03:53:07.996Z,94951.84
2023-03-04T03:55:34.668Z,94952.56
2023-03-04T03:58:01.273Z,94950.38
2023-03-04T04:00:27.993Z,94951.19
2023-03-04T04:02:56.662Z,94949.75
2023-03-04T04:05:23.246Z,94948.28
2023-03-04T04:07:50.366Z,94952.00
2023-03-04T04:10:17.182Z,94951.25
2023-03-04T04:12:43.758Z,94948.75
2023-03-04T04:15:13.813Z,94945.81
2023-03-04T04:17:40.636Z,94938.09
2023-03-04T04:20:08.362Z,94948.41
2023-03-04T04:22:34.978Z,94950.66
2023-03-04T04:25:01.770Z,94950.28
2023-03-04T04:27:28.624Z,94951.78
2023-03-04T04:29:55.235Z,94954.34
2023-03-04T04:32:21.824Z,94963.22
2023-03-04T04:34:48.457Z,94955.56
2023-03-04T04:37:15.072Z,94957.44
2023-03-04T04:39:41.798Z,94955.31
2023-03-04T04:42:11.079Z,94950.81
2023-03-04T04:44:39.133Z,94955.25
2023-03-04T04:47:09.841Z,94962.00
2023-03-04T04:49:36.460Z,94957.97
2023-03-04T04:52:03.258Z,94963.06
2023-03-04T04:54:30.005Z,94956.03
2023-03-04T04:56:56.629Z,94963.47
2023-03-04T04:59:23.250Z,94957.56
2023-03-04T05:01:49.936Z,94960.53
2023-03-04T05:04:16.809Z,94948.78
2023-03-04T05:06:43.454Z,94942.91
2023-03-04T05:09:10.089Z,94940.31
2023-03-04T05:11:36.646Z,94952.88
2023-03-04T05:14:03.270Z,94943.66
2023-03-04T05:16:29.872Z,94954.72
2023-03-04T05:18:56.482Z,94943.66
2023-03-04T05:21:23.115Z,94945.59
2023-03-04T05:23:49.954Z,94950.41
2023-03-04T05:26:18.302Z,94946.00
2023-03-04T05:28:45.458Z,94948.56
2023-03-04T05:31:12.591Z,94957.44
2023-03-04T05:33:39.576Z,94957.09
2023-03-04T05:36:07.366Z,94958.22
2023-03-04T05:38:34.327Z,94953.13
2023-03-04T05:41:03.989Z,94950.53
2023-03-04T05:43:31.485Z,94955.78
2023-03-04T05:45:58.141Z,94954.69
2023-03-04T05:48:24.768Z,94962.44
2023-03-04T05:50:59.450Z,94956.28
2023-03-04T05:53:26.847Z,94953.31
2023-03-04T05:55:53.623Z,94954.06
2023-03-04T05:58:20.817Z,94957.34
2023-03-04T06:00:48.023Z,94957.00
2023-03-04T06:03:19.690Z,94960.06
2023-03-04T06:05:46.323Z,94959.97
2023-03-04T06:08:13.335Z,94974.41
2023-03-04T06:10:41.282Z,94969.63
2023-03-04T06:13:09.386Z,94964.88
2023-03-04T06:15:36.193Z,94971.56
2023-03-04T06:18:02.837Z,94975.19
2023-03-04T06:20:29.550Z,94972.28
2023-03-04T06:22:56.207Z,94986.69
2023-03-04T06:25:22.853Z,94985.56
2023-03-04T06:27:54.169Z,94990.72
2023-03-04T06:30:22.360Z,94993.28
2023-03-04T06:32:49.139Z,94995.16
2023-03-04T06:35:17.209Z,94996.59
2023-03-04T06:37:43.791Z,94992.19
2023-03-04T06:40:11.662Z,94995.88
2023-03-04T06:42:38.779Z,94996.59
2023-03-04T06:45:05.901Z,94992.91
2023-03-04T06:47:32.891Z,94989.94
2023-03-04T06:49:59.600Z,94996.56
2023-03-04T06:52:26.236Z,94994.34
2023-03-04T06:54:52.863Z,94993.25
2023-03-04T06:57:19.413Z,95000.25
2023-03-04T06:59:46.102Z,94993.59
2023-03-04T07:02:13.023Z,94998.34
2023-03-04T07:04:40.465Z,94999.41
2023-03-04T07:07:07.111Z,94999.72
2023-03-04T07:09:33.909Z,95012.97
2023-03-04T07:12:00.613Z,95012.91
2023-03-04T07:14:28.066Z,95003.69
2023-03-04T07:16:55.252Z,95008.81
2023-03-04T07:19:22.139Z,95008.00
2023-03-04T07:21:48.719Z,95012.41
2023-03-04T07:24:15.396Z,95014.84
2023-03-04T07:26:42.362Z,95016.84
2023-03-04T07:29:08.984Z,95012.25
2023-03-04T07:31:37.019Z,95021.63
2023-03-04T07:34:06.510Z,95013.72
2023-03-04T07:36:35.476Z,95021.06
2023-03-04T07:39:02.072Z,95022.69
2023-03-04T07:41:30.096Z,95019.81
2023-03-04T07:43:58.276Z,95019.50
2023-03-04T07:46:25.387Z,95025.81
2023-03-04T07:48:52.056Z,95028.38
2023-03-04T07:51:21.299Z,95025.06
2023-03-04T07:53:50.501Z,95027.97
2023-03-04T07:56:21.522Z,95032.41
2023-03-04T07:58:48.934Z,95033.56
2023-03-04T08:01:18.400Z,95033.06
2023-03-04T08:03:45.551Z,95040.81
2023-03-04T08:06:15.117Z,95039.28
2023-03-04T08:08:43.146Z,95038.50
2023-03-04T08:11:16.258Z,95047.31
2023-03-04T08:13:42.873Z,95051.97
2023-03-04T08:16:12.734Z,95048.75
2023-03-04T08:18:40.576Z,95047.56
2023-03-04T08:21:11.936Z,95040.47
2023-03-04T08:23:40.036Z,95049.25
2023-03-04T08:26:12.234Z,95047.34
2023-03-04T08:28:39.963Z,95054.66
2023-03-04T08:31:06.713Z,95039.41
2023-03-04T08:33:34.255Z,95043.31
2023-03-04T08:36:01.015Z,95050.88
2023-03-04T08:38:27.793Z,95051.53
2023-03-04T08:40:56.044Z,95041.09
2023-03-04T08:43:23.990Z,95043.19
2023-03-04T08:45:51.488Z,95047.19
2023-03-04T08:48:18.777Z,95049.34
2023-03-04T08:50:47.354Z,95037.41
2023-03-04T08:53:14.683Z,95045.09
2023-03-04T08:55:42.423Z,95046.22
2023-03-04T08:58:09.922Z,95043.53
2023-03-04T09:00:38.785Z,95042.97
2023-03-04T09:03:05.462Z,95037.69
2023-03-04T09:05:32.812Z,95045.06
2023-03-04T09:07:59.505Z,95048.03
2023-03-04T09:10:26.255Z,95046.66
2023-03-04T09:12:53.096Z,95045.22
2023-03-04T09:15:19.770Z,95040.03
2023-03-04T09:17:46.454Z,95039.22
2023-03-04T09:20:14.009Z,95047.44
2023-03-04T09:22:41.822Z,95050.44
2023-03-04T09:25:12.728Z,95047.13
2023-03-04T09:27:40.124Z,95043.94
2023-03-04T09:30:08.126Z,95045.22
2023-03-04T09:32:34.815Z,95044.63
2023-03-04T09:35:01.529Z,95038.81
2023-03-04T09:37:28.095Z,95046.38
2023-03-04T09:39:54.785Z,95049.91
2023-03-04T09:42:28.590Z,95048.91
2023-03-04T09:44:56.036Z,95047.91
2023-03-04T09:47:23.786Z,95050.69
2023-03-04T09:49:58.788Z,95052.06
2023-03-04T09:52:49.920Z,95051.13
2023-03-04T09:55:34.656Z,95062.00
2023-03-04T09:58:14.462Z,95058.78
2023-03-04T10:00:42.931Z,95052.41
2023-03-04T10:03:12.335Z,95049.09
2023-03-04T10:05:52.990Z,95060.38
2023-03-04T10:08:30.889Z,95050.41
2023-03-04T10:11:00.790Z,95050.34
2023-03-04T10:13:44.916Z,95046.00
2023-03-04T10:16:18.380Z,95042.66
2023-03-04T10:18:52.917Z,95043.00
2023-03-04T10:21:48.464Z,95035.31
2023-03-04T10:24:18.224Z,95037.19
2023-03-04T10:26:47.899Z,95037.28
2023-03-04T10:29:20.741Z,95030.78
2023-03-04T10:31:49.460Z,95029.09
2023-03-04T10:34:17.810Z,95036.66
2023-03-04T10:36:55.136Z,95038.34
2023-03-04T10:39:29.636Z,95026.72
2023-03-04T10:42:00.050Z,95021.63
2023-03-04T10:44:27.446Z,95022.75
2023-03-04T10:46:56.439Z,95020.47
2023-03-04T10:49:27.838Z,95016.84
2023-03-04T10:52:18.581Z,95021.59
2023-03-04T10:54:51.553Z,95016.50
2023-03-04T10:57:33.109Z,95018.19
2023-03-04T11:00:01.933Z,95015.88
2023-03-04T11:02:31.902Z,95007.88
2023-03-04T11:05:24.295Z,95001.34
2023-03-04T11:07:56.123Z,95006.69
2023-03-04T11:10:32.152Z,95007.81
2023-03-04T11:12:58.731Z,95002.22
2023-03-04T11:15:27.685Z,95005.00
2023-03-04T11:17:58.935Z,95006.19
2023-03-04T11:20:30.859Z,95003.25
2023-03-04T11:23:04.734Z,94990.47
2023-03-04T11:25:35.724Z,94999.63
2023-03-04T11:28:11.604Z,94998.16
2023-03-04T11:30:42.662Z,94998.81
2023-03-04T11:33:17.848Z,94994.19
2023-03-04T11:35:54.017Z,94998.34
2023-03-04T11:38:23.208Z,94992.75
2023-03-04T11:40:57.103Z,94981.84
2023-03-04T11:43:26.560Z,94980.16
2023-03-04T11:46:33.830Z,94977.13
2023-03-04T11:49:13.349Z,94975.41
2023-03-04T11:52:10.600Z,94975.28
2023-03-04T11:54:46.500Z,94969.69
2023-03-04T11:57:30.212Z,94971.19
2023-03-04T12:00:23.035Z,94966.78
2023-03-04T12:03:01.892Z,94959.69
2023-03-04T12:05:53.043Z,94966.50
2023-03-04T12:08:43.978Z,94954.06
2023-03-04T12:11:22.621Z,94953.22
2023-03-04T12:13:52.367Z,94956.38
2023-03-04T12:16:30.834Z,94947.72
2023-03-04T12:19:14.849Z,94943.94
2023-03-04T12:22:01.734Z,94934.56
2023-03-04T12:24:40.526Z,94932.22
2023-03-04T12:27:38.171Z,94932.66
2023-03-04T12:30:20.543Z,94923.31
2023-03-04T12:32:57.930Z,94918.50
2023-03-04T12:35:34.487Z,94929.63
2023-03-04T12:38:42.049Z,94920.81
2023-03-04T12:41:35.887Z,94911.25
2023-03-04T12:44:22.137Z,94916.03
2023-03-04T12:47:21.160Z,94901.44
2023-03-04T12:50:12.506Z,94901.25
2023-03-04T12:52:48.484Z,94895.97
2023-03-04T12:55:19.109Z,94900.72
2023-03-04T12:57:46.295Z,94893.03
2023-03-04T13:00:42.133Z,94895.28
2023-03-04T13:04:01.425Z,94888.69
2023-03-04T13:06:49.355Z,94885.75
2023-03-04T13:09:30.195Z,94884.03
2023-03-04T13:12:22.076Z,94879.41
2023-03-04T13:15:27.055Z,94871.09
2023-03-04T13:17:57.076Z,94863.03
2023-03-04T13:20:42.833Z,94865.06
2023-03-04T13:23:09.521Z,94865.69
2023-03-04T13:25:40.442Z,94865.41
2023-03-04T13:28:10.206Z,94866.13
2023-03-04T13:30:39.737Z,94866.00
2023-03-04T13:33:26.677Z,94859.66
2023-03-04T13:35:58.135Z,94869.66
2023-03-04T13:38:27.958Z,94856.47
2023-03-04T13:41:19.482Z,94861.75
2023-03-04T13:43:47.219Z,94856.94
2023-03-04T13:46:19.671Z,94853.28
2023-03-04T13:48:52.545Z,94858.28
2023-03-04T13:51:29.619Z,94858.94
2023-03-04T13:53:59.922Z,94858.53
2023-03-04T13:56:47.682Z,94854.53
2023-03-04T13:59:28.129Z,94852.72
2023-03-04T14:02:01.476Z,94839.50
2023-03-04T14:04:33.577Z,94842.81
2023-03-04T14:07:02.310Z,94835.28
2023-03-04T14:09:32.189Z,94838.50
2023-03-04T14:12:13.022Z,94837.44
2023-03-04T14:14:53.942Z,94838.25
2023-03-04T14:17:25.582Z,94832.19
2023-03-04T14:19:53.934Z,94835.72
2023-03-04T14:22:26.321Z,94824.28
2023-03-04T14:25:04.890Z,94827.00
2023-03-04T14:27:35.466Z,94818.97
2023-03-04T14:30:26.133Z,94819.56
2023-03-04T14:33:02.301Z,94828.94
2023-03-04T14:35:31.858Z,94815.81
2023-03-04T14:38:08.557Z,94819.31
2023-03-04T14:40:50.956Z,94808.81
2023-03-04T14:43:23.303Z,94814.38
2023-03-04T14:45:56.448Z,94811.84
2023-03-04T14:48:28.186Z,94809.34
2023-03-04T14:50:57.087Z,94809.72
2023-03-04T14:53:26.423Z,94801.78
2023-03-04T14:56:00.813Z,94801.28
2023-03-04T14:58:32.925Z,94805.38
2023-03-04T15:01:15.377Z,94803.31
2023-03-04T15:03:46.122Z,94806.38
2023-03-04T15:06:19.615Z,94802.34
2023-03-04T15:08:54.603Z,94799.00
2023-03-04T15:11:25.039Z,94800.00
2023-03-04T15:13:57.208Z,94799.28
2023-03-04T15:16:26.571Z,94798.91
2023-03-04T15:18:55.856Z,94802.56
2023-03-04T15:21:37.015Z,94806.38
2023-03-04T15:24:05.303Z,94810.50
2023-03-04T15:26:34.436Z,94812.34
2023-03-04T15:29:01.601Z,94804.84
2023-03-04T15:31:29.304Z,94820.06
2023-03-04T15:33:56.003Z,94815.63
2023-03-04T15:36:24.033Z,94804.03
2023-03-04T15:38:53.610Z,94807.53
2023-03-04T15:41:26.967Z,94811.94
2023-03-04T15:43:54.636Z,94809.16
2023-03-04T15:46:22.036Z,94811.47
2023-03-04T15:48:49.680Z,94812.19
2023-03-04T15:51:21.030Z,94818.59
2023-03-04T15:53:50.716Z,94816.56
2023-03-04T15:56:26.754Z,94823.88
2023-03-04T15:58:56.059Z,94817.41
2023-03-04T16:01:23.884Z,94824.78
2023-03-04T16:03:53.404Z,94824.41
2023-03-04T16:06:23.509Z,94826.28
2023-03-04T16:08:52.082Z,94838.50
2023-03-04T16:11:25.752Z,94838.44
2023-03-04T16:13:52.890Z,94827.81
2023-03-04T16:16:20.209Z,94832.53
2023-03-04T16:18:47.351Z,94830.63
2023-03-04T16:21:18.063Z,94836.31
2023-03-04T16:23:49.913Z,94833.78
2023-03-04T16:26:22.801Z,94838.22
2023-03-04T16:28:50.389Z,94836.69
2023-03-04T16:31:18.222Z,94839.44
2023-03-04T16:33:45.435Z,94843.97
2023-03-04T16:36:16.976Z,94840.91
2023-03-04T16:38:44.154Z,94849.53
2023-03-04T16:41:13.753Z,94849.03
2023-03-04T16:43:41.634Z,94847.88
2023-03-04T16:46:10.861Z,94853.34
2023-03-04T16:48:38.846Z,94850.38
2023-03-04T16:51:14.170Z,94852.00
2023-03-04T16:53:43.347Z,94859.34
2023-03-04T16:56:16.260Z,94856.06
2023-03-04T16:58:46.309Z,94857.22
2023-03-04T17:01:18.745Z,94867.63
2023-03-04T17:03:45.868Z,94863.44
2023-03-04T17:06:14.110Z,94866.03
2023-03-04T17:08:41.690Z,94876.88
2023-03-04T17:11:13.023Z,94872.56
2023-03-04T17:13:43.223Z,94877.75
2023-03-04T17:16:11.822Z,94881.38
2023-03-04T17:18:41.614Z,94884.66
2023-03-04T17:21:11.908Z,94885.81
2023-03-04T17:23:38.615Z,94894.38
2023-03-04T17:26:05.742Z,94900.22
2023-03-04T17:28:33.015Z,94896.97
2023-03-04T17:30:59.755Z,94901.75
2023-03-04T17:33:26.690Z,94896.75
2023-03-04T17:35:53.639Z,94906.84
2023-03-04T17:38:20.444Z,94910.41
2023-03-04T17:40:47.525Z,94918.88
2023-03-04T17:43:14.228Z,94914.94
2023-03-04T17:45:42.106Z,94922.72
2023-03-04T17:48:15.437Z,94926.56
2023-03-04T17:50:52.341Z,94927.59
2023-03-04T17:53:20.298Z,94926.06
2023-03-04T17:55:50.856Z,94935.47
2023-03-04T17:58:17.566Z,94934.66
2023-03-04T18:00:44.384Z,94936.63
2023-03-04T18:03:14.759Z,94938.06
2023-03-04T18:05:41.566Z,94943.69
2023-03-04T18:08:08.209Z,94942.75
2023-03-04T18:10:35.381Z,94940.66
2023-03-04T18:13:02.198Z,94937.31
2023-03-04T18:15:29.066Z,94934.84
2023-03-04T18:17:55.800Z,94941.63
2023-03-04T18:20:22.896Z,94944.56
2023-03-04T18:22:49.663Z,94945.56
2023-03-04T18:25:16.976Z,94950.03
2023-03-04T18:27:44.080Z,94954.28
2023-03-04T18:30:14.185Z,94956.22
2023-03-04T18:32:51.694Z,94954.56
2023-03-04T18:35:19.711Z,94955.06
2023-03-04T18:37:46.659Z,94956.31
2023-03-04T18:40:14.263Z,94965.69
2023-03-04T18:42:40.977Z,94963.56
2023-03-04T18:45:08.434Z,94968.63
2023-03-04T18:47:35.374Z,94967.50
2023-03-04T18:50:02.041Z,94972.19
2023-03-04T18:52:28.790Z,94975.44
2023-03-04T18:54:55.407Z,94968.97
2023-03-04T18:57:22.144Z,94976.63
2023-03-04T19:00:02.157Z,94978.91
2023-03-04T19:02:40.665Z,94976.13
2023-03-04T19:05:16.206Z,94974.34
2023-03-04T19:07:42.837Z,94979.34
2023-03-04T19:10:10.872Z,94977.56
2023-03-04T19:12:37.469Z,94985.47
2023-03-04T19:15:05.908Z,94981.75
2023-03-04T19:17:33.214Z,94985.56
2023-03-04T19:20:00.050Z,94986.88
2023-03-04T19:22:26.669Z,94979.25
2023-03-04T19:24:53.715Z,94979.97
2023-03-04T19:27:20.449Z,94982.03
2023-03-04T19:29:48.833Z,94979.53
2023-03-04T19:32:19.402Z,94977.78
2023-03-04T19:34:47.594Z,94977.88
2023-03-04T19:37:15.873Z,94985.38
2023-03-04T19:39:43.734Z,94990.09
2023-03-04T19:42:11.537Z,94988.00
2023-03-04T19:44:38.933Z,94985.84
2023-03-04T19:47:06.329Z,94986.50
2023-03-04T19:49:33.775Z,94987.13
2023-03-04T19:52:00.733Z,94978.16
2023-03-04T19:54:31.121Z,94977.13
2023-03-04T19:56:58.677Z,94974.97
2023-03-04T19:59:25.593Z,94979.56
2023-03-04T20:01:54.151Z,94975.25
2023-03-04T20:04:21.760Z,94983.75
2023-03-04T20:06:50.668Z,94978.28
2023-03-04T20:09:18.299Z,94984.97
2023-03-04T20:11:57.125Z,94984.13
2023-03-04T20:14:25.654Z,94986.03
2023-03-04T20:16:52.421Z,94988.44
2023-03-04T20:19:19.070Z,94991.84
2023-03-04T20:21:45.736Z,94989.09
2023-03-04T20:24:13.063Z,94980.28
2023-03-04T20:26:39.724Z,94986.94
2023-03-04T20:29:06.664Z,94987.06
2023-03-04T20:31:38.834Z,94982.59
2023-03-04T20:34:06.873Z,94987.34
2023-03-04T20:36:34.582Z,94980.44
2023-03-04T20:39:02.705Z,94979.50
2023-03-04T20:41:31.420Z,94986.34
2023-03-04T20:43:58.298Z,94984.75
2023-03-04T20:46:43.044Z,94979.59
2023-03-04T20:49:15.140Z,94981.75
2023-03-04T20:51:42.493Z,94979.19
2023-03-04T20:54:09.807Z,94972.13
2023-03-04T20:56:37.929Z,94968.72
2023-03-04T20:59:07.098Z,94979.69
2023-03-04T21:01:33.880Z,94971.50
2023-03-04T21:04:01.872Z,94968.50
2023-03-04T21:06:29.220Z,94972.13
2023-03-04T21:08:59.483Z,94971.19
2023-03-04T21:11:26.052Z,94957.81
2023-03-04T21:13:57.851Z,94966.03
2023-03-04T21:16:27.181Z,94968.16
2023-03-04T21:18:53.861Z,94957.81
2023-03-04T21:21:22.270Z,94959.00
2023-03-04T21:23:50.436Z,94944.38
2023-03-04T21:26:18.999Z,94938.28
2023-03-04T21:28:46.755Z,94937.75
2023-03-04T21:31:23.943Z,94931.53
2023-03-04T21:33:52.646Z,94931.09
2023-03-04T21:36:19.340Z,94927.78
2023-03-04T21:38:46.602Z,94932.16
2023-03-04T21:41:15.066Z,94938.47
2023-03-04T21:43:41.719Z,94931.34
2023-03-04T21:46:09.729Z,94928.03
2023-03-04T21:48:36.813Z,94926.16
2023-03-04T21:51:06.805Z,94927.00
2023-03-04T21:53:35.340Z,94934.63
2023-03-04T21:56:03.401Z,94921.50
2023-03-04T21:58:30.103Z,94927.72
2023-03-04T22:00:57.934Z,94925.84
2023-03-04T22:03:24.633Z,94917.03
2023-03-04T22:05:51.311Z,94919.50
2023-03-04T22:08:21.034Z,94911.03
2023-03-04T22:10:48.390Z,94910.63
2023-03-04T22:13:15.914Z,94907.72
2023-03-04T22:15:44.421Z,94903.97
2023-03-04T22:18:14.041Z,94894.38
2023-03-04T22:20:43.811Z,94899.94
2023-03-04T22:23:12.159Z,94903.97
2023-03-04T22:25:41.394Z,94897.38
2023-03-04T22:28:09.108Z,94895.59
2023-03-04T22:30:36.404Z,94899.63
2023-03-04T22:33:03.758Z,94897.44
2023-03-04T22:35:30.772Z,94892.28
2023-03-04T22:37:57.418Z,94890.44
2023-03-04T22:40:24.087Z,94886.38
2023-03-04T22:42:50.767Z,94893.84
2023-03-04T22:45:18.520Z,94890.31
2023-03-04T22:47:52.738Z,94893.66
2023-03-04T22:50:20.811Z,94894.69
2023-03-04T22:52:48.216Z,94889.38
2023-03-04T22:55:16.772Z,94893.13
2023-03-04T22:57:43.787Z,94887.22
2023-03-04T23:00:19.264Z,94885.88
2023-03-04T23:02:46.116Z,94885.06
2023-03-04T23:05:13.198Z,94883.19
2023-03-04T23:07:40.178Z,94875.84
2023-03-04T23:10:09.335Z,94883.94
2023-03-04T23:12:36.078Z,94882.06
2023-03-04T23:15:02.686Z,94882.06
2023-03-04T23:17:29.443Z,94884.31
2023-03-04T23:19:56.251Z,94882.84
2023-03-04T23:22:22.845Z,94884.31
2023-03-04T23:24:49.490Z,94885.78
2023-03-04T23:27:16.289Z,94882.84
2023-03-04T23:29:42.949Z,94884.72
2023-03-04T23:32:09.787Z,94882.84
2023-03-04T23:34:36.716Z,94886.38
2023-03-04T23:37:03.812Z,94880.38
2023-03-04T23:39:30.387Z,94874.06
2023-03-04T23:41:56.983Z,94878.19
2023-03-04T23:44:23.632Z,94879.66
2023-03-04T23:46:50.244Z,94877.38
2023-03-04T23:49:18.008Z,94881.97
2023-03-04T23:51:45.336Z,94880.97
2023-03-04T23:54:13.631Z,94875.81
2023-03-04T23:56:40.620Z,94868.03
2023-03-04T23:59:11.931Z,94873.53
